Flight Track Log - Related Links

Times and Time Zones

All times are in EDT time to prevent confusion due to time zone crossing. See the N631RJ flight status page for this flight to view local times or setup timezone preferences in your user account.

Time Position Orientation Groundspeed Altitude Reporting Facility
EDT Latitude Longitude Course Direction KTS MPH feet Rate Location/Type
Tue 04:27:10 PM 40.8667 -74.0500 360° North 98 113 900  Level New York TRACON
Tue 04:28:10 PM 40.9000 -74.0500 360° North 102 117 1,700 950 Climbing New York TRACON
Tue 04:29:10 PM 40.9000 -74.0833 270° West 116 133 2,800 750 Climbing New York TRACON
Tue 04:30:10 PM 40.9167 -74.1167 303° West 133 153 3,200 500 Climbing New York TRACON
Tue 04:31:10 PM 40.9333 -74.1667 294° West 127 146 3,800 672 Climbing New York TRACON
Tue 04:32:15 PM 40.9500 -74.2167 294° West 140 161 4,600 672 Climbing New York TRACON
Tue 04:33:15 PM 40.9833 -74.2000 21° North 117 135 5,200 650 Climbing New York TRACON
Tue 04:34:15 PM 41.0167 -74.1833 21° North 121 139 5,900 400 Climbing New York TRACON
Tue 04:35:15 PM 41.0500 -74.1667 21° North 138 159 6,000 50 Climbing New York TRACON
Tue 04:36:15 PM 41.0833 -74.1500 21° North 150 173 6,000  Level New York TRACON
Tue 04:37:15 PM 41.1167 -74.1333 21° North 157 181 6,000 52 Level New York TRACON
Tue 04:38:10 PM 41.1333 -74.0833 66° East 158 182 6,100 450 Climbing New York TRACON
Tue 04:39:15 PM 41.1500 -74.0500 56° Northeast 118 136 6,900 432 Climbing New York TRACON
Tue 04:40:15 PM 41.1667 -74.0000 66° East 133 153 7,000 50 Climbing New York TRACON
Tue 04:41:15 PM 41.1833 -73.9500 66° East 142 163 7,000  Level New York TRACON
Tue 04:42:10 PM 41.2000 -73.9167 56° Northeast 151 174 7,000  Level New York TRACON
Tue 04:43:10 PM 41.2167 -73.8667 66° East 153 176 7,000  Level New York TRACON
Tue 04:44:10 PM 41.2333 -73.8167 66° East 156 180 7,000  Level New York TRACON
Tue 04:45:10 PM 41.2333 -73.7500 90° East 154 177 7,000  Level New York TRACON
Tue 04:46:16 PM 41.2500 -73.7000 66° East 156 180 7,000  Level New York TRACON
Tue 04:47:16 PM 41.2667 -73.6500 66° East 153 176 7,000  Level New York TRACON
Tue 04:48:16 PM 41.2833 -73.5833 72° East 156 180 7,000  Level New York TRACON
Tue 04:49:16 PM 41.3000 -73.5333 66° East 155 178 7,000  Level New York TRACON
Tue 04:50:16 PM 41.3167 -73.4833 66° East 148 170 7,000  Level New York TRACON
Tue 04:51:16 PM 41.3333 -73.4333 66° East 152 175 7,000  Level New York TRACON
Tue 04:52:16 PM 41.3500 -73.3833 66° East 152 175 7,000  Level New York TRACON
Tue 04:53:03 PM 41.3611 -73.3472 68° East 156 180 7,000  Level Boston Center
Tue 04:53:46 PM 41.3758 -73.3142 59° Northeast 154 177 7,000  Level Boston Center
Tue 04:54:46 PM 41.3928 -73.2619 67° East 153 176 7,000  Level Boston Center
Tue 04:55:47 PM 41.4142 -73.2125 60° Northeast 151 174 7,000  Level Boston Center
Tue 04:56:54 PM 41.4414 -73.1628 54° Northeast 151 174 7,000  Level Boston Center
Tue 04:57:55 PM 41.4647 -73.1161 56° Northeast 152 175 7,000  Level Boston Center
Tue 04:59:01 PM 41.5003 -73.0747 41° Northeast 154 177 7,000  Level Boston Center
Tue 05:00:02 PM 41.5317 -73.0447 36° Northeast 151 174 7,000  Level Boston Center
Tue 05:01:03 PM 41.5633 -73.0006 46° Northeast 152 175 7,000  Level Boston Center
Tue 05:02:03 PM 41.5886 -72.9592 51° Northeast 151 174 7,000  Level Boston Center
Tue 05:03:04 PM 41.6178 -72.9150 49° Northeast 151 174 7,000  Level Boston Center
Tue 05:04:05 PM 41.6450 -72.8736 49° Northeast 151 174 7,000  Level Boston Center
Tue 05:05:05 PM 41.6744 -72.8264 50° Northeast 152 175 7,000  Level Boston Center
Tue 05:06:06 PM 41.7017 -72.7847 49° Northeast 152 175 7,000  Level Boston Center
Tue 05:07:13 PM 41.7311 -72.7378 50° Northeast 150 173 7,000  Level Boston Center
Tue 05:08:14 PM 41.7603 -72.6961 47° Northeast 152 175 7,000 -110 Level Boston Center
Tue 05:09:02 PM 41.7811 -72.6600 52° Northeast 154 177 6,800 -417 Descending Boston Center
Tue 05:10:09 PM 41.8147 -72.6072 49° Northeast 168 193 6,200 -516 Descending Boston Center
Tue 05:11:10 PM 41.8458 -72.5628 47° Northeast 169 194 5,700 -492 Descending Boston Center
Tue 05:12:11 PM 41.8772 -72.5097 52° Northeast 171 197 5,200 -347 Descending Boston Center
Tue 05:13:11 PM 41.9086 -72.4625 48° Northeast 164 189 5,000 -104 Descending Boston Center
Tue 05:14:06 PM 41.9336 -72.4233 49° Northeast 155 178 5,000  Level Boston Center
Tue 05:15:07 PM 41.9606 -72.3786 51° Northeast 149 171 5,000  Level Boston Center
Tue 05:16:08 PM 41.9897 -72.3367 47° Northeast 152 175 5,000  Level Boston Center
Tue 05:17:09 PM 42.0169 -72.2919 51° Northeast 153 176 5,000  Level Boston Center
Tue 05:18:09 PM 42.0439 -72.2472 51° Northeast 151 174 5,000  Level Boston Center
Tue 05:19:10 PM 42.0708 -72.2025 51° Northeast 150 173 5,000  Level Boston Center
Tue 05:20:11 PM 42.1000 -72.1603 47° Northeast 147 169 5,000  Level Boston Center
Tue 05:21:11 PM 42.1269 -72.1181 49° Northeast 151 174 5,000  Level Boston Center
Tue 05:22:12 PM 42.1519 -72.0761 51° Northeast 149 171 5,000  Level Boston Center
Tue 05:23:13 PM 42.1808 -72.0339 47° Northeast 150 173 5,000  Level Boston Center
Tue 05:24:14 PM 42.2078 -71.9917 49° Northeast 148 170 5,000  Level Boston Center
Tue 05:25:14 PM 42.2367 -71.9467 49° Northeast 150 173 5,000  Level Boston Center
Tue 05:26:09 PM 42.2617 -71.9072 49° Northeast 152 175 5,000  Level Boston Center
Tue 05:28:39 PM 42.3333 -71.7833 52° Northeast 153 176 5,000 29 Level KA90
Tue 05:29:33 PM 42.3500 -71.7500 56° Northeast 154 177 5,100 53 Climbing KA90
Tue 05:30:33 PM 42.3833 -71.7000 48° Northeast 155 178 5,100  Level KA90
Tue 05:31:33 PM 42.4000 -71.6500 66° East 158 182 5,100 -200 Level KA90
Tue 05:32:33 PM 42.4167 -71.6000 66° East 158 182 4,700 -524 Descending KA90
Tue 05:33:39 PM 42.4500 -71.5333 56° Northeast 176 203 4,000 -600 Descending KA90
Tue 05:34:33 PM 42.4667 -71.4833 66° East 179 206 3,500 -450 Descending KA90
Tue 05:35:39 PM 42.4667 -71.4167 90° East 171 197 3,100 -200 Descending KA90
Tue 05:36:33 PM 42.4833 -71.3667 66° East 155 178 3,100 -211 Level KA90
Tue 05:37:33 PM 42.4833 -71.3000 90° East 166 191 2,700 -550 Descending KA90
Tue 05:38:33 PM 42.5000 -71.2333 71° East 179 206 2,000 -400 Descending KA90
Tue 05:39:33 PM 42.5167 -71.1833 66° East 162 186 1,900 -50 Descending KA90
Tue 05:40:33 PM 42.5167 -71.1333 90° East 122 140 1,900  Level KA90
Tue 05:41:39 PM 42.5000 -71.0833 114° Southeast 118 136 1,900  Level KA90
Tue 05:42:33 PM 42.4833 -71.0667 144° Southeast 122 140 1,900  Level KA90
Tue 05:43:39 PM 42.4500 -71.0833 200° South 118 136 1,900  Level KA90
Tue 05:44:39 PM 42.4500 -71.1333 270° West 119 137 1,900 -200 Level KA90
Tue 05:45:39 PM 42.4667 -71.1667 304° West 119 137 1,500 -500 Descending KA90
Tue 05:46:39 PM 42.4667 -71.2167 270° West 121 139 900 -600 Descending KA90
Tue 05:48:00 PM 42.4667 -71.2833 236° Southwest  Level FlightAware Approximate

Login

Don't have an account? Register now (free) for customized features, flight alerts, and more!